Not for real navigation | The accuracy of this data is not assured | See disclaimer for more information
ICAO NAME COUNTRY WIND Kt GUST Kt VIS TEMP/DEW BARO
KRRL Merrill, Merrill Municipal Air WI United States 13 17 1200 -5/-6 30.03
KRRL 180615Z AUTO 13013G17KT 0.75SM SN OVC012 M05/M06 A3003 RMK AO2 T10461057 TS
SBIZ Imperatriz Brazil 7 0 3000 22/22 29.91
SBIZ 180500Z 27007KT 3000 TSRA BKN007 FEW025CB OVC070 22/22 Q1013
KMHL 5 0 3200 0/0 29.82
KMHL 180635Z AUTO 29005KT 2 0.5SM OVC003 00/00 A2982 RMK AO2 TS PWINO
FQBR Beira Mozambique 7 0 5000 24/24 29.77
FQBR 180600Z 03007KT 5000 TSRA BKN009 FEW025CB OVC030 24/24 Q1008 RMK CB TO N/NE
PAPB ST. GEORGE AIRPORT AK United States 10 0 6400 -1/-1 29.43
PAPB 180553Z AUTO 05010KT 4SM -SN BR SCT011 BKN022 OVC070 M01/M01 A2943 RMK AO2 SNB04 SLP954 P0000 60000 I6000 T10111011 10000 21022 56003 TS $

Show more

Close Menu